Time;durP1;ratioP1;P1;durP2;ratioP2;P2;SDS_P1;SDS_P2;PMS_P1;PMS_P2;Temp;Humidity;BMP_temperature;BMP_pressure;BME280_temperature;BME280_humidity;BME280_pressure;Samples;Min_cycle;Max_cycle;Signal;HPM_P1;HPM_P2
2022/10/13 00:01:42;;;;;;;22.77;11.75;;;;;;;12.05;75.63;101823.28;4926201;29;20096;-96
2022/10/13 00:04:07;;;;;;;18.02;11.30;;;;;;;12.03;75.45;101808.34;4925514;29;20028;-95
2022/10/13 00:06:33;;;;;;;20.83;11.07;;;;;;;12.17;75.65;101832.63;4927968;29;20394;-96
2022/10/13 00:08:58;;;;;;;26.65;11.70;;;;;;;12.08;75.60;101814.38;4928096;29;20046;-96
2022/10/13 00:11:29;;;;;;;22.33;11.50;;;;;;;12.12;75.40;101813.34;4925682;29;20394;-96
2022/10/13 00:14:00;;;;;;;18.50;11.07;;;;;;;12.03;75.53;101798.63;4926290;29;20028;-96
2022/10/13 00:16:26;;;;;;;16.40;11.23;;;;;;;12.08;75.59;101804.66;4922470;29;20038;-96
2022/10/13 00:18:52;;;;;;;20.13;10.75;;;;;;;12.08;75.48;101804.66;4922364;29;20025;-96
2022/10/13 00:21:20;;;;;;;20.55;10.88;;;;;;;12.08;75.85;101803.78;4922064;29;20060;-96
2022/10/13 00:23:46;;;;;;;22.80;11.60;;;;;;;12.08;75.59;101798.47;4921830;29;20486;-95
2022/10/13 00:26:13;;;;;;;18.33;10.35;;;;;;;12.12;75.58;101793.00;4920958;29;20024;-96
2022/10/13 00:28:39;;;;;;;18.92;10.55;;;;;;;12.09;75.22;101782.53;4921661;29;20106;-95
2022/10/13 00:31:19;;;;;;;22.20;12.48;;;;;;;12.10;75.21;101788.69;4922137;29;20072;-96
2022/10/13 00:33:44;;;;;;;21.58;10.45;;;;;;;12.15;75.11;101794.72;4922190;29;20024;-96
2022/10/13 00:36:10;;;;;;;19.63;10.93;;;;;;;12.02;75.52;101780.97;4921494;29;20035;-96
2022/10/13 00:38:35;;;;;;;20.42;10.35;;;;;;;12.06;74.79;101798.50;4921828;29;20484;-96
2022/10/13 00:41:00;;;;;;;20.65;10.70;;;;;;;12.06;75.68;101787.03;4920606;29;20050;-96
2022/10/13 00:43:59;;;;;;;20.38;11.00;;;;;;;12.11;74.81;101782.47;4923336;29;20036;-95
2022/10/13 00:46:33;;;;;;;17.08;9.85;;;;;;;12.13;75.30;101784.16;4921162;29;20444;-96
2022/10/13 00:49:08;;;;;;;17.17;10.10;;;;;;;12.06;75.14;101784.41;4919753;29;20028;-95
2022/10/13 00:51:39;;;;;;;21.25;10.60;;;;;;;12.12;75.26;101781.53;4920246;29;20024;-96
2022/10/13 00:54:08;;;;;;;20.05;11.30;;;;;;;12.18;74.36;101784.88;4919454;29;20118;-96
2022/10/13 00:56:35;;;;;;;22.67;10.55;;;;;;;12.17;75.52;101783.16;4920868;29;20028;-96
2022/10/13 00:59:02;;;;;;;22.60;10.82;;;;;;;12.18;75.30;101791.97;4919329;29;20035;-96
2022/10/13 01:01:28;;;;;;;20.92;10.88;;;;;;;12.30;75.04;101796.00;4920665;29;20031;-95
2022/10/13 01:03:53;;;;;;;19.95;10.80;;;;;;;12.29;75.21;101802.22;4919149;29;20023;-95
2022/10/13 01:06:18;;;;;;;21.23;10.23;;;;;;;12.34;75.40;101801.16;4920789;29;20036;-96
2022/10/13 01:08:44;;;;;;;21.80;10.52;;;;;;;12.30;75.46;101791.56;4919767;29;20032;-96
2022/10/13 01:11:38;;;;;;;22.23;10.82;;;;;;;12.33;74.30;101794.13;4919703;29;20024;-95
2022/10/13 01:14:34;;;;;;;22.20;10.68;;;;;;;12.36;74.66;101794.03;4921031;29;20107;-96
2022/10/13 01:17:11;;;;;;;22.63;9.77;;;;;;;12.24;75.57;101779.38;4918976;29;20032;-96
2022/10/13 01:20:04;;;;;;;22.33;11.05;;;;;;;12.32;75.66;101791.53;4921323;29;20055;-96
2022/10/13 01:22:39;;;;;;;24.05;10.93;;;;;;;12.38;75.01;101788.69;4920216;29;20056;-96
2022/10/13 01:25:23;;;;;;;20.58;10.20;;;;;;;12.42;75.04;101803.56;4919104;29;20028;-95
2022/10/13 01:28:06;;;;;;;21.23;10.77;;;;;;;12.38;75.55;101792.19;4921065;29;20036;-95
2022/10/13 01:30:40;;;;;;;19.83;10.73;;;;;;;12.32;75.28;101776.50;4885124;29;20565;-95
2022/10/13 01:33:15;;;;;;;19.92;10.88;;;;;;;12.39;74.57;101790.41;4884595;29;20024;-96
2022/10/13 01:35:54;;;;;;;21.38;9.52;;;;;;;12.42;74.56;101790.31;4884719;29;20123;-96
2022/10/13 01:38:53;;;;;;;21.90;11.00;;;;;;;12.43;74.63;101781.44;4901329;29;20032;-95
2022/10/13 01:41:32;;;;;;;18.00;9.57;;;;;;;12.41;75.03;101777.97;4884705;29;20044;-95
2022/10/13 01:44:36;;;;;;;19.67;9.88;;;;;;;12.45;74.25;101791.09;4886272;29;20035;-96
2022/10/13 01:47:04;;;;;;;18.92;9.90;;;;;;;12.42;75.25;101785.88;4885652;29;20024;-96
2022/10/13 01:49:35;;;;;;;21.80;11.07;;;;;;;12.43;75.34;101792.03;4884461;29;20543;-94
2022/10/13 01:52:05;;;;;;;18.85;10.30;;;;;;;12.32;75.61;101773.84;4869618;29;20025;-95
2022/10/13 01:54:31;;;;;;;19.17;10.52;;;;;;;12.39;75.88;101774.50;4867251;29;20029;-95
2022/10/13 01:56:57;;;;;;;16.13;9.90;;;;;;;12.34;75.74;101776.44;4865193;29;20036;-96
2022/10/13 01:59:25;;;;;;;23.40;10.40;;;;;;;12.37;75.73;101774.56;4883370;29;20051;-95
2022/10/13 02:02:17;;;;;;;17.73;9.80;;;;;;;12.32;75.54;101757.06;4894490;29;20044;-96
2022/10/13 02:04:58;;;;;;;19.15;10.75;;;;;;;12.39;76.07;101769.19;4883928;29;20028;-96
2022/10/13 02:07:35;;;;;;;21.60;11.27;;;;;;;12.38;74.54;101757.72;4901736;29;20024;-96
2022/10/13 02:10:21;;;;;;;20.48;11.25;;;;;;;12.41;76.24;101767.38;4902048;29;20036;-96
2022/10/13 02:12:53;;;;;;;18.65;10.45;;;;;;;12.41;75.96;101756.75;4900332;29;20028;-96
2022/10/13 02:15:21;;;;;;;;;;;;;;;12.48;75.77;101758.28;4880960;29;20120;-96
2022/10/13 02:17:47;;;;;;;20.98;9.68;;;;;;;12.27;75.75;101727.19;4865790;29;19956;-96
2022/10/13 02:20:15;;;;;;;20.48;10.27;;;;;;;12.36;76.14;101741.00;4865453;29;20043;-95
2022/10/13 02:22:45;;;;;;;19.48;9.93;;;;;;;12.32;75.80;101739.38;4882581;29;20028;-95
2022/10/13 02:25:10;;;;;;;20.27;10.75;;;;;;;12.33;76.29;101733.13;4865339;29;20025;-95
2022/10/13 02:27:36;;;;;;;20.90;10.73;;;;;;;12.40;75.64;101741.75;4881157;29;20037;-96
2022/10/13 02:30:03;;;;;;;21.27;9.98;;;;;;;12.36;76.06;101727.75;4880333;29;20049;-95
2022/10/13 02:32:28;;;;;;;20.20;10.15;;;;;;;12.39;76.50;101738.22;4882126;29;20084;-96
2022/10/13 02:34:54;;;;;;;22.80;10.60;;;;;;;12.31;76.04;101719.06;4865177;29;20024;-96
2022/10/13 02:37:19;;;;;;;14.15;8.85;;;;;;;12.33;76.20;101724.31;4864919;29;20112;-95
2022/10/13 02:39:45;;;;;;;22.27;9.90;;;;;;;12.34;76.15;101729.56;4883160;29;20039;-96
2022/10/13 02:42:10;;;;;;;18.33;9.70;;;;;;;12.30;75.79;101727.06;4865169;29;20128;-96
2022/10/13 02:44:36;;;;;;;23.23;10.10;;;;;;;12.31;76.28;101718.19;4866133;29;20057;-95
2022/10/13 02:47:01;;;;;;;24.73;10.00;;;;;;;12.43;75.57;101739.00;4882447;29;20056;-96
2022/10/13 02:49:27;;;;;;;20.50;9.45;;;;;;;12.36;76.08;101729.53;4864673;29;20025;-95
2022/10/13 02:51:52;;;;;;;16.30;9.73;;;;;;;12.35;76.25;101718.03;4881319;29;20109;-96
2022/10/13 02:54:17;;;;;;;19.77;10.20;;;;;;;12.39;76.19;101721.44;4864648;29;20025;-94
2022/10/13 02:56:43;;;;;;;22.10;10.38;;;;;;;12.39;75.93;101717.00;4897073;29;20025;-95
2022/10/13 02:59:08;;;;;;;18.65;10.15;;;;;;;12.43;76.25;101718.66;4883396;29;20196;-96
2022/10/13 03:01:34;;;;;;;19.30;10.02;;;;;;;12.41;76.72;101719.63;4882719;29;20095;-96
2022/10/13 03:04:00;;;;;;;17.88;9.90;;;;;;;12.38;76.01;101714.41;4884962;29;20437;-94
2022/10/13 03:06:25;;;;;;;25.30;10.23;;;;;;;12.45;76.77;101726.53;4884664;29;20032;-95
2022/10/13 03:08:51;;;;;;;19.10;9.07;;;;;;;12.49;75.21;101736.13;4885084;29;20036;-95
2022/10/13 03:11:16;;;;;;;20.70;9.80;;;;;;;12.48;76.01;101722.00;4884381;29;20024;-96
2022/10/13 03:13:41;;;;;;;23.80;11.02;;;;;;;12.36;76.53;101710.97;4884596;29;20384;-95
2022/10/13 03:16:07;;;;;;;23.13;9.77;;;;;;;12.39;76.77;101706.41;4885417;29;20119;-96
2022/10/13 03:18:33;;;;;;;19.98;9.82;;;;;;;12.33;76.29;101696.00;4901975;29;20031;-95
2022/10/13 03:21:01;;;;;;;21.40;10.05;;;;;;;12.43;76.38;101708.03;4901188;29;20032;-96
2022/10/13 03:23:27;;;;;;;19.30;9.90;;;;;;;12.42;75.91;101705.44;4884739;29;20048;-95
2022/10/13 03:25:53;;;;;;;20.02;9.73;;;;;;;12.37;76.08;101692.34;4901304;29;20025;-95
2022/10/13 03:28:19;;;;;;;18.80;9.57;;;;;;;12.41;76.66;101704.59;4904163;29;20373;-95
2022/10/13 03:30:44;;;;;;;18.75;9.48;;;;;;;12.44;76.03;101700.94;4920251;29;20043;-95
2022/10/13 03:33:09;;;;;;;18.38;8.77;;;;;;;12.39;75.71;101692.28;4906221;29;20031;-95
2022/10/13 03:35:35;;;;;;;18.83;9.20;;;;;;;12.43;76.22;101692.13;4907700;29;20111;-95
2022/10/13 03:38:01;;;;;;;16.98;10.35;;;;;;;12.46;75.99;101685.88;4907180;29;20365;-95
2022/10/13 03:40:27;;;;;;;18.23;9.75;;;;;;;12.56;76.00;101705.84;4906946;29;20032;-95
2022/10/13 03:42:52;;;;;;;15.38;8.75;;;;;;;12.52;75.53;101693.59;4906759;29;20032;-95
2022/10/13 03:45:18;;;;;;;16.08;9.05;;;;;;;12.59;75.94;101703.09;4906368;29;20610;-96
2022/10/13 03:47:43;;;;;;;17.23;9.80;;;;;;;12.58;76.35;101690.72;4908044;29;20055;-95
2022/10/13 03:50:09;;;;;;;17.58;9.15;;;;;;;12.64;76.23;101709.09;4907104;29;20031;-95
2022/10/13 03:52:34;;;;;;;21.35;10.10;;;;;;;12.61;76.06;101697.72;4906655;29;20031;-96
2022/10/13 03:55:00;;;;;;;18.88;10.52;;;;;;;12.60;76.32;101688.03;4905887;29;20025;-95
2022/10/13 03:57:25;;;;;;;18.10;9.13;;;;;;;12.63;76.17;101683.47;4906131;29;20024;-94
2022/10/13 03:59:50;;;;;;;17.88;9.48;;;;;;;12.64;75.65;101679.06;4905138;29;20164;-95
2022/10/13 04:02:20;;;;;;;18.20;9.20;;;;;;;12.62;75.81;101671.13;4907157;29;20046;-96
2022/10/13 04:04:45;;;;;;;22.15;10.48;;;;;;;12.59;75.77;101658.00;4906413;29;20491;-95
2022/10/13 04:07:11;;;;;;;20.30;10.32;;;;;;;12.65;75.45;101670.16;4907202;29;20030;-96
2022/10/13 04:09:36;;;;;;;21.30;10.05;;;;;;;12.64;75.88;101663.13;4905369;29;20119;-95
2022/10/13 04:12:02;;;;;;;23.60;10.85;;;;;;;12.62;76.43;101657.88;4906687;29;20028;-96
2022/10/13 04:14:27;;;;;;;16.08;8.88;;;;;;;12.61;75.46;101656.13;4905717;29;20028;-96
2022/10/13 04:16:53;;;;;;;15.27;9.15;;;;;;;12.64;75.26;101665.78;4907865;29;20088;-96
2022/10/13 04:19:18;;;;;;;17.45;10.68;;;;;;;12.74;75.04;101676.00;4907609;29;20035;-95
2022/10/13 04:21:43;;;;;;;18.48;9.70;;;;;;;12.72;75.01;101667.22;4906567;29;20235;-95
2022/10/13 04:24:12;;;;;;;18.65;10.43;;;;;;;12.77;75.11;101672.38;4906368;29;20082;-96
2022/10/13 04:26:37;;;;;;;18.77;10.32;;;;;;;12.79;75.28;101667.03;4907023;29;20087;-95
2022/10/13 04:29:05;;;;;;;21.63;11.43;;;;;;;12.80;75.69;101666.09;4904873;29;20110;-95
2022/10/13 04:31:31;;;;;;;21.48;10.30;;;;;;;12.72;75.63;101651.31;4906469;29;20024;-96
2022/10/13 04:33:56;;;;;;;21.48;9.43;;;;;;;12.81;75.64;101651.91;4923170;29;20051;-96
2022/10/13 04:36:23;;;;;;;18.25;9.50;;;;;;;12.71;75.65;101649.56;4905780;29;20028;-95
2022/10/13 04:38:49;;;;;;;18.85;10.63;;;;;;;12.67;75.86;101631.19;4906284;29;20476;-96
2022/10/13 04:41:16;;;;;;;17.90;10.15;;;;;;;12.74;76.11;101649.47;4905396;29;20429;-95
2022/10/13 04:43:42;;;;;;;21.60;9.82;;;;;;;12.76;75.69;101657.38;4902589;29;20399;-95
2022/10/13 04:46:22;;;;;;;20.83;10.25;;;;;;;12.75;75.95;101650.34;4903251;29;20035;-96
2022/10/13 04:48:48;;;;;;;18.88;10.65;;;;;;;12.80;76.19;101664.31;4903819;29;20061;-95
2022/10/13 04:51:16;;;;;;;17.98;9.95;;;;;;;12.74;76.18;101644.16;4912995;29;20087;-96
2022/10/13 04:53:42;;;;;;;16.98;9.70;;;;;;;12.69;75.81;101643.47;4884878;29;20021;-96
2022/10/13 04:56:12;;;;;;;16.08;9.88;;;;;;;12.72;75.97;101642.47;4885878;29;20039;-95
2022/10/13 04:58:39;;;;;;;17.98;10.23;;;;;;;12.71;75.80;101638.97;4885630;29;20025;-95
2022/10/13 05:01:07;;;;;;;20.70;9.85;;;;;;;12.67;75.67;101650.59;4901196;29;20047;-95
2022/10/13 05:03:33;;;;;;;14.70;9.20;;;;;;;12.75;75.61;101659.16;4901197;29;20111;-94
2022/10/13 05:05:59;;;;;;;18.83;10.55;;;;;;;12.73;75.56;101660.16;4900478;29;20067;-95
2022/10/13 05:08:25;;;;;;;17.95;9.90;;;;;;;12.76;75.96;101652.94;4884206;29;20064;-96
2022/10/13 05:10:59;;;;;;;17.60;10.13;;;;;;;12.64;75.47;101626.88;4884594;29;20035;-94
2022/10/13 05:13:25;;;;;;;16.85;10.13;;;;;;;12.77;75.87;101644.03;4883981;29;20452;-96
2022/10/13 05:15:51;;;;;;;17.65;9.75;;;;;;;12.62;75.45;101627.81;4900528;29;20469;-95
2022/10/13 05:18:16;;;;;;;23.02;10.60;;;;;;;12.60;75.99;101635.84;4883870;29;20044;-96
2022/10/13 05:20:42;;;;;;;17.05;9.20;;;;;;;12.56;76.01;101636.00;4883945;29;20028;-95
2022/10/13 05:23:08;;;;;;;16.25;9.27;;;;;;;12.57;75.78;101646.56;4884450;29;20029;-96
2022/10/13 05:25:34;;;;;;;19.83;10.18;;;;;;;12.67;76.32;101653.25;4883668;29;20177;-96
2022/10/13 05:27:59;;;;;;;19.27;9.50;;;;;;;12.60;76.45;101650.91;4900905;29;20423;-96
2022/10/13 05:30:25;;;;;;;17.35;10.05;;;;;;;12.66;75.65;101663.94;4900761;29;20035;-95
2022/10/13 05:32:50;;;;;;;19.20;9.60;;;;;;;12.63;76.65;101664.03;4884159;29;20196;-95
2022/10/13 05:35:15;;;;;;;24.17;10.00;;;;;;;12.55;76.20;101652.84;4900902;29;20024;-95
2022/10/13 05:37:41;;;;;;;18.25;10.18;;;;;;;12.52;76.69;101659.13;4883318;29;20028;-95
2022/10/13 05:40:07;;;;;;;21.15;10.88;;;;;;;12.50;76.84;101653.00;4900236;29;20093;-96
2022/10/13 05:42:34;;;;;;;24.42;11.18;;;;;;;12.42;76.93;101644.47;4883476;29;20034;-95
2022/10/13 05:45:00;;;;;;;18.98;10.32;;;;;;;12.44;76.72;101643.47;4883200;29;20025;-95
2022/10/13 05:47:27;;;;;;;19.67;10.80;;;;;;;12.46;76.41;101641.63;4900598;29;20052;-96
2022/10/13 05:49:54;;;;;;;17.90;10.50;;;;;;;12.45;76.78;101639.91;4883606;29;20036;-96
2022/10/13 05:52:21;;;;;;;18.15;10.45;;;;;;;12.39;77.07;101631.28;4899765;29;20032;-96
2022/10/13 05:54:50;;;;;;;18.63;10.32;;;;;;;12.46;76.95;101649.59;4882862;29;20080;-95
2022/10/13 05:57:30;;;;;;;25.20;10.88;;;;;;;12.41;76.76;101635.63;4899887;29;20040;-96
2022/10/13 06:00:06;;;;;;;18.80;10.60;;;;;;;12.43;77.01;101638.22;4900575;29;20025;-96
2022/10/13 06:02:39;;;;;;;19.05;10.50;;;;;;;12.44;76.57;101656.72;4898485;29;20029;-96
2022/10/13 06:05:07;;;;;;;18.92;10.05;;;;;;;12.40;77.57;101643.63;4868303;29;20028;-96
2022/10/13 06:07:33;;;;;;;17.95;10.35;;;;;;;12.41;76.41;101650.69;4882476;29;20127;-96
2022/10/13 06:10:00;;;;;;;21.30;10.70;;;;;;;12.49;76.93;101662.72;4899592;29;20080;-96
2022/10/13 06:12:25;;;;;;;19.17;10.50;;;;;;;12.54;76.62;101653.75;4882855;29;20384;-95
2022/10/13 06:14:50;;;;;;;21.80;11.02;;;;;;;12.47;76.45;101629.25;4899511;29;20024;-96
2022/10/13 06:17:16;;;;;;;23.38;11.32;;;;;;;12.54;76.86;101636.03;4882312;29;20080;-95
2022/10/13 06:19:41;;;;;;;17.60;10.07;;;;;;;12.57;75.90;101627.13;4882311;29;20055;-95
2022/10/13 06:22:07;;;;;;;19.05;9.65;;;;;;;12.61;77.05;101632.28;4883182;29;20055;-96
2022/10/13 06:24:33;;;;;;;21.02;11.32;;;;;;;12.59;76.16;101635.88;4899859;29;20511;-96
2022/10/13 06:26:58;;;;;;;19.58;11.38;;;;;;;12.67;76.47;101625.88;4882517;29;20060;-96
2022/10/13 06:29:23;;;;;;;18.67;11.10;;;;;;;12.62;76.69;101630.47;4871360;29;20045;-95
2022/10/13 06:31:49;;;;;;;21.63;11.13;;;;;;;12.61;76.42;101605.75;4864511;29;20374;-95
2022/10/13 06:34:14;;;;;;;19.50;10.90;;;;;;;12.60;76.95;101608.47;4864224;29;20021;-95
2022/10/13 06:36:41;;;;;;;18.63;11.05;;;;;;;12.63;76.10;101616.28;4864647;29;20024;-95
2022/10/13 06:39:06;;;;;;;21.02;10.55;;;;;;;12.80;76.02;101640.41;4864644;29;20032;-95
2022/10/13 06:41:32;;;;;;;21.67;11.35;;;;;;;12.80;76.47;101639.56;4891538;29;20484;-96
2022/10/13 06:43:57;;;;;;;18.60;11.35;;;;;;;12.76;76.10;101623.75;4899695;29;20033;-95
2022/10/13 06:46:22;;;;;;;19.00;10.18;;;;;;;12.88;76.10;101635.72;4901587;29;20473;-96
2022/10/13 06:48:49;;;;;;;21.50;11.43;;;;;;;12.84;75.94;101620.81;4889966;29;20029;-95
2022/10/13 06:51:15;;;;;;;24.13;10.68;;;;;;;12.81;75.89;101609.44;4890129;29;20020;-96
2022/10/13 06:53:41;;;;;;;21.05;11.65;;;;;;;12.97;76.03;101637.16;4890520;29;20063;-96
2022/10/13 06:56:07;;;;;;;19.77;11.18;;;;;;;12.95;76.01;101639.00;4908555;29;20092;-96
2022/10/13 06:58:36;;;;;;;22.65;12.50;;;;;;;12.91;75.51;101635.56;4905864;29;20009;-96
2022/10/13 07:01:02;;;;;;;24.02;11.90;;;;;;;12.87;75.75;101609.19;4906887;29;20045;-95
2022/10/13 07:03:28;;;;;;;25.15;12.15;;;;;;;12.89;75.07;101610.91;4923196;29;20052;-96
2022/10/13 07:05:54;;;;;;;20.40;12.73;;;;;;;13.02;75.84;101620.13;4906270;29;20032;-96
2022/10/13 07:08:20;;;;;;;20.08;11.68;;;;;;;13.03;75.79;101613.03;4906553;29;20040;-96
2022/10/13 07:10:46;;;;;;;30.33;12.52;;;;;;;13.09;74.70;101619.88;4907047;29;20012;-94
2022/10/13 07:13:11;;;;;;;25.13;12.40;;;;;;;13.10;75.02;101609.19;4923146;29;20017;-95
2022/10/13 07:15:38;;;;;;;22.70;12.23;;;;;;;13.08;74.85;101612.84;4903865;29;20092;-96
2022/10/13 07:18:03;;;;;;;23.83;12.05;;;;;;;13.08;75.15;101611.06;4907745;29;20032;-96
2022/10/13 07:20:29;;;;;;;23.38;12.57;;;;;;;13.15;75.47;101624.94;4905200;29;20032;-96
2022/10/13 07:22:54;;;;;;;22.80;12.60;;;;;;;13.11;73.86;101621.56;4904309;29;20036;-96
2022/10/13 07:25:20;;;;;;;28.67;12.30;;;;;;;13.11;74.88;101623.38;4887492;29;20075;-95
2022/10/13 07:27:45;;;;;;;24.95;14.02;;;;;;;13.16;74.78;101624.91;4901896;29;20067;-95
2022/10/13 07:30:12;;;;;;;24.45;13.40;;;;;;;13.18;74.49;101624.84;4920063;29;20140;-95
2022/10/13 07:32:38;;;;;;;22.00;12.70;;;;;;;13.24;74.82;101622.88;4903542;29;20036;-96
2022/10/13 07:35:04;;;;;;;22.38;11.80;;;;;;;13.28;74.85;101620.94;4905365;29;20031;-96
2022/10/13 07:37:30;;;;;;;23.27;12.57;;;;;;;13.34;74.68;101612.75;4906250;29;20056;-96
2022/10/13 07:39:55;;;;;;;22.27;11.98;;;;;;;13.44;74.57;101630.06;4905804;29;20032;-96
2022/10/13 07:42:20;;;;;;;23.60;12.15;;;;;;;13.44;74.66;101623.88;4905314;29;20087;-95
2022/10/13 07:45:42;;;;;;;18.45;11.82;;;;;;;13.63;73.83;101643.47;4909438;29;20028;-96
2022/10/13 07:48:07;;;;;;;21.42;11.43;;;;;;;13.53;74.19;101629.69;4904487;29;20039;-96
2022/10/13 07:50:33;;;;;;;19.17;12.05;;;;;;;13.53;73.08;101621.72;4921377;29;20028;-96
2022/10/13 07:52:58;;;;;;;22.10;11.85;;;;;;;13.59;73.95;101633.88;4907702;29;20080;-95
2022/10/13 07:55:24;;;;;;;28.15;12.43;;;;;;;13.54;73.76;101614.59;4921357;29;20020;-96
2022/10/13 07:57:49;;;;;;;26.42;12.30;;;;;;;13.59;73.89;101615.28;4907760;29;20039;-96
2022/10/13 08:00:15;;;;;;;26.30;12.45;;;;;;;13.65;74.17;101617.69;4905085;29;20039;-95
2022/10/13 08:02:40;;;;;;;22.08;12.82;;;;;;;13.75;73.30;101631.47;4921252;29;20028;-96
2022/10/13 08:05:06;;;;;;;21.13;11.55;;;;;;;13.91;73.02;101647.66;4903909;29;20033;-96
2022/10/13 08:07:31;;;;;;;21.55;12.68;;;;;;;13.92;72.57;101626.31;4902409;29;20111;-96
2022/10/13 08:09:57;;;;;;;23.23;12.45;;;;;;;13.90;72.80;101628.19;4919876;29;20152;-96
2022/10/13 08:12:22;;;;;;;18.48;11.23;;;;;;;13.98;72.12;101615.44;4919901;29;20032;-96
2022/10/13 08:14:50;;;;;;;22.67;12.25;;;;;;;14.05;72.21;101624.03;4902912;29;20158;-95
2022/10/13 08:17:16;;;;;;;19.38;11.00;;;;;;;14.15;71.56;101625.38;4920097;29;20060;-96
2022/10/13 08:19:42;;;;;;;20.83;11.93;;;;;;;14.22;70.64;101626.84;4920362;29;20081;-95
2022/10/13 08:22:09;;;;;;;22.67;11.23;;;;;;;14.18;71.47;101617.25;4903909;29;20035;-95
2022/10/13 08:24:35;;;;;;;19.38;11.57;;;;;;;14.21;71.06;101625.09;4906041;29;20028;-96
2022/10/13 08:27:02;;;;;;;20.65;10.82;;;;;;;14.25;70.01;101626.69;4904833;29;20035;-94
2022/10/13 08:29:27;;;;;;;23.10;11.48;;;;;;;14.27;70.77;101642.59;4905343;29;20496;-96
2022/10/13 08:31:53;;;;;;;21.70;11.65;;;;;;;14.29;70.84;101628.28;4905095;29;20031;-96
2022/10/13 08:34:19;;;;;;;22.23;11.20;;;;;;;14.20;70.96;101606.56;4907682;29;20028;-95
2022/10/13 08:36:45;;;;;;;21.52;11.73;;;;;;;14.32;70.52;101608.69;4905222;29;20032;-96
2022/10/13 08:39:10;;;;;;;19.25;11.77;;;;;;;14.65;70.20;101613.50;4904535;29;20427;-96
2022/10/13 08:41:39;;;;;;;25.23;12.18;;;;;;;14.85;68.70;101605.47;4904260;29;20031;-95
2022/10/13 08:44:25;;;;;;;20.90;11.50;;;;;;;15.05;67.90;101608.06;4904991;29;20043;-96
2022/10/13 08:47:03;;;;;;;19.92;11.10;;;;;;;15.03;69.06;101625.06;4903274;29;20035;-96
2022/10/13 08:49:29;;;;;;;21.77;11.27;;;;;;;14.95;68.98;101614.75;4903031;29;20158;-96
2022/10/13 08:51:57;;;;;;;22.70;11.85;;;;;;;14.91;68.55;101605.16;4903894;29;20468;-95
2022/10/13 08:54:24;;;;;;;22.13;11.13;;;;;;;14.89;69.38;101633.69;4922974;29;20024;-95
2022/10/13 08:56:51;;;;;;;20.98;10.85;;;;;;;14.86;68.56;101627.63;4921052;29;20034;-96
2022/10/13 08:59:17;;;;;;;16.80;10.73;;;;;;;14.78;69.40;101609.31;4920320;29;20387;-95
2022/10/13 09:01:47;;;;;;;22.73;11.90;;;;;;;14.88;68.94;101618.63;4902991;29;20028;-96
2022/10/13 09:04:32;;;;;;;21.17;11.93;;;;;;;14.91;69.22;101613.16;4921267;29;20033;-96
2022/10/13 09:07:10;;;;;;;19.17;10.55;;;;;;;14.89;69.24;101624.81;4920901;29;20028;-95
2022/10/13 09:09:37;;;;;;;20.73;11.43;;;;;;;14.78;68.68;101596.91;4920723;29;20453;-96
2022/10/13 09:12:04;;;;;;;23.33;11.82;;;;;;;14.87;69.34;101610.69;4921025;29;20032;-96
2022/10/13 09:14:34;;;;;;;19.08;10.63;;;;;;;14.79;68.80;101590.63;4903795;29;20063;-96
2022/10/13 09:17:15;;;;;;;21.58;11.15;;;;;;;14.93;69.23;101600.66;4904130;29;20036;-96
2022/10/13 09:19:40;;;;;;;20.35;10.68;;;;;;;14.85;69.41;101591.28;4903080;29;20083;-96
2022/10/13 09:22:24;;;;;;;22.05;10.80;;;;;;;14.98;69.34;101606.63;4904613;29;20028;-96
2022/10/13 09:25:28;;;;;;;22.00;11.68;;;;;;;14.84;69.54;101613.53;4904182;29;20047;-96
2022/10/13 09:27:59;;;;;;;19.52;10.95;;;;;;;14.78;69.33;101615.53;4919903;29;20127;-96
2022/10/13 09:30:27;;;;;;;20.45;11.50;;;;;;;14.71;70.20;101615.88;4902904;29;20428;-96
2022/10/13 09:33:08;;;;;;;21.45;12.02;;;;;;;14.73;69.60;101609.53;4904355;29;20031;-95
2022/10/13 09:35:47;;;;;;;23.58;11.63;;;;;;;14.67;69.29;101588.53;4902496;29;20024;-95
2022/10/13 09:38:21;;;;;;;22.17;12.15;;;;;;;14.59;69.44;101585.34;4903936;29;20016;-94
2022/10/13 09:41:05;;;;;;;23.58;11.77;;;;;;;14.64;69.57;101604.66;4887896;29;20031;-94
2022/10/13 09:43:35;;;;;;;20.50;12.40;;;;;;;14.70;68.97;101607.03;4903784;29;20427;-96
2022/10/13 09:46:09;;;;;;;23.17;13.40;;;;;;;14.66;69.16;101593.91;4902830;29;20028;-95
2022/10/13 09:48:35;;;;;;;20.63;11.82;;;;;;;14.71;69.75;101592.78;4903259;29;20122;-96
2022/10/13 09:51:01;;;;;;;19.20;11.57;;;;;;;14.68;69.31;101574.28;4903189;29;20028;-95
2022/10/13 09:53:32;;;;;;;19.60;11.20;;;;;;;14.66;70.07;101569.97;4902768;29;20032;-96
2022/10/13 09:59:34;;;;;;;23.80;11.70;;;;;;;14.84;69.85;101602.88;4919331;29;20104;-96
2022/10/13 10:02:42;;;;;;;18.50;10.25;;;;;;;14.78;69.94;101585.34;4921082;29;20028;-96
2022/10/13 10:05:25;;;;;;;18.15;10.95;;;;;;;14.80;70.96;101602.16;4907455;29;20171;-96
2022/10/13 10:07:51;;;;;;;17.77;10.55;;;;;;;14.59;71.35;101595.13;4902056;29;20506;-95
2022/10/13 10:10:32;;;;;;;19.45;11.75;;;;;;;14.44;72.25;101575.34;4902553;29;20024;-96
2022/10/13 10:12:58;;;;;;;18.48;10.77;;;;;;;14.47;72.62;101583.22;4906540;29;20032;-95
2022/10/13 10:15:48;;;;;;;19.60;10.70;;;;;;;14.44;73.84;101594.84;4922746;29;20499;-96
2022/10/13 10:18:20;;;;;;;21.10;10.68;;;;;;;14.30;74.48;101574.16;4852610;29;20072;-95
2022/10/13 10:20:58;;;;;;;19.60;11.07;;;;;;;14.37;73.94;101576.56;4882974;29;20059;-95
2022/10/13 10:23:45;;;;;;;22.98;11.32;;;;;;;14.47;74.04;101586.72;4882383;29;20489;-96
2022/10/13 10:26:42;;;;;;;19.00;12.07;;;;;;;14.47;73.87;101594.72;4881905;29;20059;-96
2022/10/13 10:29:18;;;;;;;20.15;10.80;;;;;;;14.34;74.39;101574.03;4882633;29;20052;-95
2022/10/13 10:32:12;;;;;;;19.02;11.43;;;;;;;14.35;74.28;101579.28;4882170;29;20493;-95
2022/10/13 10:35:25;;;;;;;16.25;9.95;;;;;;;14.36;74.21;101578.38;4881984;29;20067;-95
2022/10/13 10:38:08;;;;;;;23.85;11.30;;;;;;;14.38;74.76;101580.94;4807911;29;20034;-96
2022/10/13 10:40:53;;;;;;;19.15;10.85;;;;;;;14.40;75.40;101582.59;4881400;29;20048;-96
2022/10/13 10:43:35;;;;;;;18.95;10.75;;;;;;;14.33;75.41;101564.34;4881549;29;20385;-96
2022/10/13 10:46:01;;;;;;;18.42;10.48;;;;;;;14.32;75.87;101565.28;4882319;29;20037;-96
2022/10/13 10:48:38;;;;;;;16.38;10.80;;;;;;;14.37;76.34;101579.22;4874335;29;20108;-96
2022/10/13 10:51:08;;;;;;;23.98;11.10;;;;;;;14.38;76.04;101568.50;4882176;29;20032;-96
2022/10/13 10:53:38;;;;;;;18.50;11.27;;;;;;;14.45;75.06;101561.09;4881752;29;20025;-95
2022/10/13 10:56:06;;;;;;;16.40;10.32;;;;;;;14.66;74.81;101584.13;4882082;29;20029;-95
2022/10/13 10:59:03;;;;;;;20.38;11.07;;;;;;;14.64;74.97;101583.34;4881751;29;20033;-96
2022/10/13 11:01:33;;;;;;;23.25;11.15;;;;;;;14.62;76.07;101581.69;4882563;29;20499;-96
2022/10/13 11:04:20;;;;;;;19.02;10.75;;;;;;;14.71;75.54;101576.81;4898503;29;20066;-96
2022/10/13 11:06:45;;;;;;;22.10;11.23;;;;;;;14.69;75.13;101561.84;4882825;29;20036;-95
2022/10/13 11:09:11;;;;;;;17.10;10.02;;;;;;;14.72;74.21;101549.25;4882468;29;20115;-95
2022/10/13 11:11:41;;;;;;;19.48;10.88;;;;;;;14.75;74.84;101548.25;4882360;29;20032;-95
2022/10/13 11:14:06;;;;;;;154.80;18.33;;;;;;;14.91;76.10;101561.69;4882985;29;20025;-96
2022/10/13 11:16:33;;;;;;;18.00;10.48;;;;;;;14.91;75.08;101556.38;4881975;29;20080;-95
2022/10/13 11:19:34;;;;;;;19.17;10.45;;;;;;;14.94;75.15;101548.25;4898289;29;20052;-96
2022/10/13 11:21:59;;;;;;;18.67;10.90;;;;;;;14.96;76.24;101559.69;4881880;29;20029;-95
2022/10/13 11:24:40;;;;;;;16.52;10.52;;;;;;;15.05;75.17;101549.47;4881316;29;20032;-96
2022/10/13 11:27:14;;;;;;;18.02;10.45;;;;;;;15.07;75.26;101541.41;4881658;29;20127;-95
2022/10/13 11:29:43;;;;;;;22.60;11.80;;;;;;;15.03;75.58;101551.34;4898358;29;20045;-95